createdAt,value
2017-12-28T00:00:33.251Z,16.17
2017-12-28T00:03:01.513Z,19.10
2017-12-28T00:05:29.840Z,76.17
2017-12-28T00:07:58.880Z,30.13
2017-12-28T00:10:27.180Z,18.63
2017-12-28T00:12:55.539Z,16.17
2017-12-28T00:15:23.819Z,18.83
2017-12-28T00:17:52.104Z,25.50
2017-12-28T00:20:20.363Z,15.43
2017-12-28T00:22:48.638Z,20.50
2017-12-28T00:25:16.938Z,20.10
2017-12-28T00:27:45.289Z,17.40
2017-12-28T00:30:14.319Z,18.73
2017-12-28T00:32:42.603Z,20.27
2017-12-28T00:35:11.657Z,22.43
2017-12-28T00:37:39.922Z,16.47
2017-12-28T00:40:08.184Z,17.60
2017-12-28T00:42:36.477Z,19.60
2017-12-28T00:45:04.804Z,17.83
2017-12-28T00:47:33.072Z,21.50
2017-12-28T00:50:01.347Z,21.43
2017-12-28T00:52:29.726Z,15.47
2017-12-28T00:54:57.987Z,17.47
2017-12-28T00:57:26.242Z,15.83
2017-12-28T00:59:54.555Z,27.03
2017-12-28T01:02:22.832Z,29.10
2017-12-28T01:04:51.211Z,22.40
2017-12-28T01:07:19.694Z,20.87
2017-12-28T01:09:48.030Z,21.60
2017-12-28T01:12:17.063Z,20.37
2017-12-28T01:14:45.314Z,23.93
2017-12-28T01:17:13.591Z,17.83
2017-12-28T01:19:41.868Z,18.97
2017-12-28T01:22:10.178Z,16.67
2017-12-28T01:24:38.514Z,18.93
2017-12-28T01:27:06.830Z,17.43
2017-12-28T01:29:35.231Z,17.17
2017-12-28T01:32:03.563Z,14.40
2017-12-28T01:34:31.868Z,17.47
2017-12-28T01:37:00.179Z,18.27
2017-12-28T01:39:29.249Z,14.60
2017-12-28T01:41:57.517Z,16.20
2017-12-28T01:44:25.813Z,18.03
2017-12-28T01:46:55.638Z,14.47
2017-12-28T01:49:25.439Z,18.90
2017-12-28T01:51:54.482Z,16.43
2017-12-28T01:54:22.897Z,18.90
2017-12-28T01:56:51.173Z,16.07
2017-12-28T01:59:19.474Z,18.97
2017-12-28T02:01:48.546Z,19.23
2017-12-28T02:04:16.800Z,12.47
2017-12-28T02:06:45.088Z,14.20
2017-12-28T02:09:13.350Z,18.83
2017-12-28T02:11:41.606Z,16.17
2017-12-28T02:14:09.905Z,15.53
2017-12-28T02:16:38.172Z,17.67
2017-12-28T02:19:06.545Z,16.73
2017-12-28T02:21:35.551Z,13.90
2017-12-28T02:24:03.830Z,14.33
2017-12-28T02:26:32.096Z,20.00
2017-12-28T02:29:00.515Z,15.70
2017-12-28T02:31:28.775Z,15.10
2017-12-28T02:33:57.095Z,13.80
2017-12-28T02:36:25.388Z,15.50
2017-12-28T02:38:54.488Z,18.07
2017-12-28T02:41:22.943Z,15.53
2017-12-28T02:43:51.195Z,17.10
2017-12-28T02:46:19.481Z,21.60
2017-12-28T02:48:47.848Z,18.30
2017-12-28T02:51:16.134Z,13.43
2017-12-28T02:53:44.434Z,17.27
2017-12-28T02:56:14.266Z,12.47
2017-12-28T02:58:43.292Z,14.53
2017-12-28T03:01:11.585Z,16.80
2017-12-28T03:03:39.830Z,14.77
2017-12-28T03:06:08.109Z,17.90
2017-12-28T03:08:36.371Z,18.30
2017-12-28T03:11:05.525Z,17.70
2017-12-28T03:13:33.805Z,18.33
2017-12-28T03:16:02.048Z,12.67
2017-12-28T03:18:30.459Z,18.43
2017-12-28T03:20:58.838Z,13.07
2017-12-28T03:23:27.094Z,18.87
2017-12-28T03:25:55.367Z,16.30
2017-12-28T03:28:23.670Z,18.90
2017-12-28T03:30:52.064Z,15.70
2017-12-28T03:33:21.156Z,15.23
2017-12-28T03:35:49.525Z,13.70
2017-12-28T03:38:17.818Z,15.40
2017-12-28T03:40:46.227Z,16.13
2017-12-28T03:43:15.249Z,13.23
2017-12-28T03:45:44.436Z,12.63
2017-12-28T03:48:12.755Z,16.50
2017-12-28T03:50:41.021Z,16.67
2017-12-28T03:53:09.284Z,13.90
2017-12-28T03:55:37.518Z,16.03
2017-12-28T03:58:06.564Z,15.50
2017-12-28T04:00:34.823Z,15.70
2017-12-28T04:03:03.105Z,25.03
2017-12-28T04:05:31.412Z,16.60
2017-12-28T04:07:59.792Z,14.73
2017-12-28T04:10:28.052Z,15.77
2017-12-28T04:12:56.336Z,13.23
2017-12-28T04:15:24.619Z,15.70
2017-12-28T04:17:52.876Z,10.30
2017-12-28T04:20:21.170Z,21.83
2017-12-28T04:22:49.440Z,13.83
2017-12-28T04:25:17.737Z,16.60
2017-12-28T04:27:45.994Z,11.90
2017-12-28T04:30:14.280Z,16.10
2017-12-28T04:32:42.575Z,13.43
2017-12-28T04:35:12.352Z,16.60
2017-12-28T04:37:40.751Z,20.57
2017-12-28T04:40:09.011Z,11.80
2017-12-28T04:42:37.283Z,15.67
2017-12-28T04:45:05.575Z,16.20
2017-12-28T04:47:33.839Z,12.33
2017-12-28T04:50:02.130Z,18.13
2017-12-28T04:52:30.397Z,14.23
2017-12-28T04:54:58.793Z,16.43
2017-12-28T04:57:27.042Z,13.63
2017-12-28T04:59:55.357Z,14.23
2017-12-28T05:02:23.726Z,16.07
2017-12-28T05:04:52.003Z,16.87
2017-12-28T05:07:20.251Z,14.37
2017-12-28T05:09:48.519Z,16.73
2017-12-28T05:12:16.825Z,11.83
2017-12-28T05:14:45.089Z,16.70
2017-12-28T05:17:13.358Z,14.13
2017-12-28T05:19:41.610Z,13.87
2017-12-28T05:22:09.894Z,12.70
2017-12-28T05:24:38.152Z,11.93
2017-12-28T05:27:06.494Z,10.27
2017-12-28T05:29:34.798Z,11.00
2017-12-28T05:32:03.059Z,11.27
2017-12-28T05:34:31.336Z,12.07
2017-12-28T05:36:59.598Z,8.80
2017-12-28T05:39:27.984Z,12.13
2017-12-28T05:41:56.363Z,12.97
2017-12-28T05:44:24.717Z,11.60
2017-12-28T05:46:52.990Z,14.80
2017-12-28T05:49:21.275Z,10.93
2017-12-28T05:51:49.555Z,12.23
2017-12-28T05:54:17.813Z,11.57
2017-12-28T05:56:46.134Z,13.03
2017-12-28T05:59:14.415Z,10.90
2017-12-28T06:01:42.676Z,10.20
2017-12-28T06:04:11.059Z,11.43
2017-12-28T06:06:39.315Z,7.83
2017-12-28T06:09:07.636Z,9.90
2017-12-28T06:11:37.387Z,12.97
2017-12-28T06:14:05.698Z,12.33
2017-12-28T06:16:33.971Z,11.13
2017-12-28T06:19:02.347Z,12.70
2017-12-28T06:21:30.615Z,9.00
2017-12-28T06:23:58.880Z,14.47
2017-12-28T06:26:27.151Z,12.50
2017-12-28T06:28:55.409Z,15.50
2017-12-28T06:31:24.446Z,9.60
2017-12-28T06:33:52.714Z,13.53
2017-12-28T06:36:20.971Z,10.13
2017-12-28T06:38:49.933Z,9.27
2017-12-28T06:41:18.963Z,10.23
2017-12-28T06:43:47.240Z,14.00
2017-12-28T06:46:15.510Z,15.13
2017-12-28T06:48:43.796Z,11.70
2017-12-28T06:51:12.056Z,9.93
2017-12-28T06:53:41.066Z,8.90
2017-12-28T06:56:09.348Z,13.73
2017-12-28T06:58:37.654Z,12.07
2017-12-28T07:01:05.940Z,10.60
2017-12-28T07:03:34.224Z,12.30
2017-12-28T07:06:02.552Z,13.73
2017-12-28T07:08:30.870Z,14.70
2017-12-28T07:10:59.169Z,12.97
2017-12-28T07:13:27.498Z,11.73
2017-12-28T07:15:55.756Z,14.10
2017-12-28T07:18:24.037Z,10.93
2017-12-28T07:20:53.081Z,13.17
2017-12-28T07:23:21.343Z,10.57
2017-12-28T07:25:49.732Z,10.37
2017-12-28T07:28:18.009Z,16.40
2017-12-28T07:30:46.297Z,14.50
2017-12-28T07:33:14.553Z,14.43
2017-12-28T07:35:42.919Z,14.47
2017-12-28T07:40:40.845Z,12.20
2017-12-28T07:43:09.111Z,12.97
2017-12-28T07:45:37.379Z,13.50
2017-12-28T07:48:05.655Z,14.10
2017-12-28T07:50:33.941Z,14.50
2017-12-28T07:53:02.321Z,15.93
2017-12-28T07:55:30.564Z,13.47
2017-12-28T07:57:58.840Z,16.33
2017-12-28T08:00:27.111Z,13.67
2017-12-28T08:02:55.522Z,15.43
2017-12-28T08:05:23.826Z,20.03
2017-12-28T08:07:52.884Z,13.03
2017-12-28T08:10:21.175Z,16.83
2017-12-28T08:12:49.433Z,10.83
2017-12-28T08:15:17.825Z,12.70
2017-12-28T08:17:46.207Z,16.30
2017-12-28T08:20:14.581Z,13.23
2017-12-28T08:22:42.990Z,16.10
2017-12-28T08:25:12.011Z,15.30
2017-12-28T08:27:40.293Z,16.70
2017-12-28T08:30:08.543Z,16.13
2017-12-28T08:32:37.594Z,15.83
2017-12-28T08:35:05.857Z,18.40
2017-12-28T08:37:34.136Z,14.23
2017-12-28T08:40:02.444Z,13.63
2017-12-28T08:42:30.749Z,14.50
2017-12-28T08:44:59.102Z,14.77
2017-12-28T08:47:27.340Z,14.73
2017-12-28T08:49:55.635Z,9.97
2017-12-28T08:52:23.890Z,10.73
2017-12-28T08:54:52.184Z,11.50
2017-12-28T08:57:20.447Z,13.27
2017-12-28T08:59:48.700Z,11.93
2017-12-28T09:02:16.995Z,10.97
2017-12-28T09:04:45.260Z,14.87
2017-12-28T09:07:14.513Z,10.27
2017-12-28T09:09:42.751Z,12.10
2017-12-28T09:12:11.035Z,13.57
2017-12-28T09:14:39.310Z,10.07
2017-12-28T09:17:07.605Z,10.67
2017-12-28T09:19:35.887Z,8.17
2017-12-28T09:22:04.148Z,10.07
2017-12-28T09:24:32.420Z,9.20
2017-12-28T09:27:00.725Z,12.07
2017-12-28T09:29:28.999Z,6.70
2017-12-28T09:31:57.264Z,11.03
2017-12-28T09:34:25.527Z,10.47
2017-12-28T09:36:53.827Z,9.83
2017-12-28T09:39:22.154Z,8.53
2017-12-28T09:41:51.196Z,8.93
2017-12-28T09:44:19.460Z,9.00
2017-12-28T09:46:47.867Z,8.90
2017-12-28T09:49:16.103Z,7.27
2017-12-28T09:51:44.433Z,12.63
2017-12-28T09:54:12.799Z,10.60
2017-12-28T09:56:41.044Z,8.77
2017-12-28T09:59:09.549Z,5.90
2017-12-28T10:01:37.791Z,9.70
2017-12-28T10:04:06.113Z,10.43
2017-12-28T10:06:34.357Z,7.03
2017-12-28T10:09:02.617Z,9.20
2017-12-28T10:11:31.659Z,7.67
2017-12-28T10:13:59.915Z,12.97
2017-12-28T10:16:28.192Z,7.07
2017-12-28T10:18:56.440Z,7.43
2017-12-28T10:21:25.484Z,10.77
2017-12-28T10:23:53.740Z,5.87
2017-12-28T10:26:22.034Z,5.17
2017-12-28T10:28:50.310Z,8.37
2017-12-28T10:31:18.600Z,6.97
2017-12-28T10:33:46.865Z,6.63
2017-12-28T10:36:15.116Z,5.73
2017-12-28T10:38:43.394Z,6.50
2017-12-28T10:41:11.695Z,6.17
2017-12-28T10:43:39.964Z,3.93
2017-12-28T10:46:08.231Z,4.80
2017-12-28T10:48:36.478Z,3.47
2017-12-28T10:51:05.526Z,3.90
2017-12-28T10:53:33.804Z,6.63
2017-12-28T10:56:02.185Z,3.17
2017-12-28T10:58:30.470Z,3.23
2017-12-28T11:00:58.733Z,3.80
2017-12-28T11:03:27.119Z,3.10
2017-12-28T11:05:55.371Z,3.10
2017-12-28T11:08:23.720Z,1.90
2017-12-28T11:10:52.739Z,3.97
2017-12-28T11:13:20.986Z,4.50
2017-12-28T11:15:50.038Z,7.03
2017-12-28T11:18:18.312Z,4.70
2017-12-28T11:20:46.594Z,3.70
2017-12-28T11:23:14.855Z,4.33
2017-12-28T11:25:43.115Z,4.07
2017-12-28T11:28:11.388Z,2.50
2017-12-28T11:30:39.638Z,3.73
2017-12-28T11:33:08.689Z,3.63
2017-12-28T11:35:36.939Z,3.03
2017-12-28T11:38:05.191Z,3.00
2017-12-28T11:40:34.252Z,3.37
2017-12-28T11:43:02.495Z,3.77
2017-12-28T11:45:30.775Z,1.90
2017-12-28T11:47:59.015Z,4.00
2017-12-28T11:50:33.700Z,6.73
2017-12-28T11:53:07.987Z,2.13
2017-12-28T11:55:42.087Z,4.20
2017-12-28T11:58:10.335Z,4.00
2017-12-28T12:03:38.591Z,3.40
2017-12-28T12:06:08.205Z,2.70
2017-12-28T12:08:42.223Z,2.27
2017-12-28T12:11:10.489Z,2.20
2017-12-28T12:13:38.779Z,3.23
2017-12-28T12:16:07.048Z,5.00
2017-12-28T12:18:35.290Z,8.03
2017-12-28T12:21:03.540Z,4.53
2017-12-28T12:23:32.587Z,2.43
2017-12-28T12:26:00.835Z,4.63
2017-12-28T12:28:29.118Z,6.30
2017-12-28T12:30:57.363Z,7.50
2017-12-28T12:33:26.404Z,2.30
2017-12-28T12:35:54.702Z,1.93
2017-12-28T12:38:22.970Z,2.50
2017-12-28T12:40:51.244Z,2.90
2017-12-28T12:43:19.511Z,1.20
2017-12-28T12:45:47.786Z,1.73
2017-12-28T12:48:16.028Z,8.50
2017-12-28T12:50:45.072Z,3.43
2017-12-28T12:53:13.327Z,5.40
2017-12-28T12:55:41.583Z,2.40
2017-12-28T12:58:10.607Z,2.30
2017-12-28T13:00:38.879Z,4.63
2017-12-28T13:03:07.200Z,2.63
2017-12-28T13:05:36.960Z,2.97
2017-12-28T13:08:05.233Z,2.83
2017-12-28T13:10:33.491Z,9.60
2017-12-28T13:13:02.515Z,5.27
2017-12-28T13:15:30.821Z,2.70
2017-12-28T13:17:59.073Z,2.73
2017-12-28T13:20:27.351Z,2.60
2017-12-28T13:22:55.596Z,5.30
2017-12-28T13:25:24.661Z,3.10
2017-12-28T13:27:53.031Z,3.87
2017-12-28T13:30:21.288Z,4.37
2017-12-28T13:32:49.571Z,5.87
2017-12-28T13:35:17.831Z,8.47
2017-12-28T13:37:46.237Z,5.70
2017-12-28T13:40:14.477Z,4.73
2017-12-28T13:42:42.747Z,13.40
2017-12-28T13:45:11.699Z,4.90
2017-12-28T13:47:40.728Z,4.07
2017-12-28T13:50:09.760Z,8.87
2017-12-28T13:52:38.015Z,3.27
2017-12-28T13:55:06.281Z,3.40
2017-12-28T13:57:34.534Z,3.10
2017-12-28T14:00:02.816Z,3.87
2017-12-28T14:02:31.840Z,9.13
2017-12-28T14:05:00.152Z,6.87
2017-12-28T14:07:28.416Z,5.23
2017-12-28T14:09:56.675Z,4.37
2017-12-28T14:12:24.957Z,7.40
2017-12-28T14:14:53.237Z,6.60
2017-12-28T14:17:21.529Z,13.20
2017-12-28T14:19:50.759Z,8.60
2017-12-28T14:22:20.548Z,6.93
2017-12-28T14:24:49.034Z,12.90
2017-12-28T14:27:17.273Z,4.90
2017-12-28T14:29:45.591Z,3.17
2017-12-28T14:32:13.963Z,6.97
2017-12-28T14:34:42.215Z,6.50
2017-12-28T14:37:10.551Z,6.43
2017-12-28T14:39:39.591Z,5.90
2017-12-28T14:42:07.894Z,6.40
2017-12-28T14:44:36.140Z,9.60
2017-12-28T14:47:04.455Z,8.40
2017-12-28T14:49:32.746Z,3.10
2017-12-28T14:52:01.135Z,5.67
2017-12-28T14:54:30.191Z,6.80
2017-12-28T14:56:58.480Z,8.20
2017-12-28T14:59:26.757Z,6.30
2017-12-28T15:01:55.203Z,9.77
2017-12-28T15:04:23.480Z,3.80
2017-12-28T15:06:51.734Z,5.17
2017-12-28T15:09:20.764Z,3.53
2017-12-28T15:11:49.036Z,2.67
2017-12-28T15:14:17.307Z,8.23
2017-12-28T15:16:45.634Z,4.87
2017-12-28T15:19:13.876Z,3.63
2017-12-28T15:21:42.167Z,2.30
2017-12-28T15:24:10.432Z,5.03
2017-12-28T15:26:38.727Z,3.10
2017-12-28T15:29:07.028Z,10.73
2017-12-28T15:31:36.057Z,6.10
2017-12-28T15:34:04.381Z,6.50
2017-12-28T15:36:32.765Z,5.07
2017-12-28T15:39:01.028Z,3.40
2017-12-28T15:41:29.355Z,2.37
2017-12-28T15:43:58.371Z,5.37
2017-12-28T15:46:26.657Z,3.43
2017-12-28T15:48:54.907Z,2.30
2017-12-28T15:51:23.980Z,4.00
2017-12-28T15:53:52.236Z,4.87
2017-12-28T15:56:20.526Z,2.23
2017-12-28T15:58:48.782Z,3.57
2017-12-28T16:01:17.035Z,4.67
2017-12-28T16:03:45.319Z,5.80
2017-12-28T16:06:13.614Z,4.57
2017-12-28T16:08:42.656Z,2.73
2017-12-28T16:11:10.938Z,2.63
2017-12-28T16:13:39.274Z,2.90
2017-12-28T16:16:07.528Z,1.50
2017-12-28T16:18:36.547Z,5.87
2017-12-28T16:21:05.588Z,3.40
2017-12-28T16:23:33.840Z,7.27
2017-12-28T16:26:02.115Z,3.10
2017-12-28T16:28:30.368Z,2.80
2017-12-28T16:30:59.423Z,3.37
2017-12-28T16:33:27.656Z,2.90
2017-12-28T16:35:55.915Z,4.17
2017-12-28T16:38:24.939Z,2.30
2017-12-28T16:40:53.195Z,2.00
2017-12-28T16:43:22.228Z,4.67
2017-12-28T16:45:50.491Z,2.90
2017-12-28T16:48:18.759Z,1.53
2017-12-28T16:50:47.015Z,3.67
2017-12-28T16:53:15.356Z,3.10
2017-12-28T16:55:45.120Z,4.13
2017-12-28T16:58:13.428Z,3.40
2017-12-28T17:00:41.679Z,1.83
2017-12-28T17:03:09.983Z,2.73
2017-12-28T17:05:38.356Z,7.40
2017-12-28T17:08:06.599Z,6.80
2017-12-28T17:10:34.908Z,1.93
2017-12-28T17:13:03.167Z,3.63
2017-12-28T17:15:31.422Z,4.40
2017-12-28T17:17:59.695Z,3.80
2017-12-28T17:20:28.710Z,6.27
2017-12-28T17:22:56.978Z,1.50
2017-12-28T17:25:25.231Z,5.80
2017-12-28T17:27:54.310Z,5.10
2017-12-28T17:30:23.392Z,3.47
2017-12-28T17:32:51.656Z,6.13
2017-12-28T17:35:19.909Z,2.23
2017-12-28T17:37:48.179Z,2.30
2017-12-28T17:40:16.504Z,1.63
2017-12-28T17:42:45.516Z,3.53
2017-12-28T17:45:14.554Z,4.03
2017-12-28T17:47:42.827Z,4.43
2017-12-28T17:50:11.105Z,4.20
2017-12-28T17:52:39.363Z,1.87
2017-12-28T17:55:07.616Z,3.40
2017-12-28T17:57:36.687Z,3.97
2017-12-28T18:00:04.961Z,5.60
2017-12-28T18:02:33.274Z,4.60
2017-12-28T18:05:01.487Z,4.00
2017-12-28T18:07:29.779Z,5.87
2017-12-28T18:09:58.042Z,1.50
2017-12-28T18:12:26.288Z,6.00
2017-12-28T18:14:55.442Z,3.70
2017-12-28T18:17:23.692Z,2.50
2017-12-28T18:19:51.967Z,6.20
2017-12-28T18:22:20.215Z,5.90
2017-12-28T18:24:49.263Z,5.47
2017-12-28T18:27:17.517Z,6.53
2017-12-28T18:29:45.771Z,6.20
2017-12-28T18:32:14.047Z,5.20
2017-12-28T18:34:43.063Z,5.43
2017-12-28T18:37:11.374Z,9.57
2017-12-28T18:39:39.619Z,9.03
2017-12-28T18:42:07.894Z,2.97
2017-12-28T18:44:36.152Z,6.80
2017-12-28T18:47:04.401Z,10.53
2017-12-28T18:49:32.691Z,2.10
2017-12-28T18:52:00.939Z,1.50
2017-12-28T18:54:29.219Z,3.23
2017-12-28T18:56:57.588Z,1.90
2017-12-28T18:59:25.975Z,6.90
2017-12-28T19:01:54.450Z,10.20
2017-12-28T19:04:22.691Z,2.50
2017-12-28T19:06:51.006Z,5.70
2017-12-28T19:09:19.259Z,4.90
2017-12-28T19:11:47.549Z,10.60
2017-12-28T19:14:15.829Z,8.83
2017-12-28T19:16:44.075Z,3.90
2017-12-28T19:19:12.346Z,9.70
2017-12-28T19:21:40.608Z,4.53
2017-12-28T19:24:09.668Z,10.13
2017-12-28T19:26:37.921Z,5.87
2017-12-28T19:29:06.215Z,5.90
2017-12-28T19:31:34.467Z,6.37
2017-12-28T19:34:02.726Z,2.17
2017-12-28T19:36:30.995Z,7.60
2017-12-28T19:38:59.313Z,4.30
2017-12-28T19:41:27.587Z,2.77
2017-12-28T19:43:55.842Z,3.53
2017-12-28T19:46:24.119Z,3.70
2017-12-28T19:48:52.415Z,7.67
2017-12-28T19:51:20.695Z,2.20
2017-12-28T19:53:49.084Z,12.30
2017-12-28T19:56:17.332Z,2.90
2017-12-28T19:58:45.632Z,2.47
2017-12-28T20:01:13.900Z,8.03
2017-12-28T20:03:42.176Z,4.00
2017-12-28T20:06:10.446Z,1.50
2017-12-28T20:08:38.690Z,2.47
2017-12-28T20:11:07.842Z,1.97
2017-12-28T20:13:36.080Z,4.63
2017-12-28T20:16:04.351Z,1.90
2017-12-28T20:18:32.618Z,5.60
2017-12-28T20:21:01.662Z,9.53
2017-12-28T20:23:29.967Z,3.77
2017-12-28T20:25:58.246Z,8.17
2017-12-28T20:28:28.029Z,3.00
2017-12-28T20:30:56.284Z,3.37
2017-12-28T20:33:24.559Z,2.57
2017-12-28T20:35:52.821Z,4.70
2017-12-28T20:38:21.067Z,2.93
2017-12-28T20:40:49.350Z,4.20
2017-12-28T20:43:18.367Z,11.73
2017-12-28T20:45:46.635Z,2.63
2017-12-28T20:48:15.664Z,4.33
2017-12-28T20:50:43.939Z,2.50
2017-12-28T20:53:12.223Z,2.47
2017-12-28T20:55:40.466Z,3.67
2017-12-28T20:58:09.515Z,3.70
2017-12-28T21:00:37.770Z,1.93
2017-12-28T21:03:06.044Z,7.13
2017-12-28T21:05:34.301Z,6.23
2017-12-28T21:08:02.581Z,5.50
2017-12-28T21:10:30.832Z,4.20
2017-12-28T21:12:59.899Z,4.53
2017-12-28T21:15:28.191Z,3.30
2017-12-28T21:17:57.219Z,2.87
2017-12-28T21:20:25.492Z,5.10
2017-12-28T21:22:53.780Z,5.67
2017-12-28T21:25:22.066Z,4.03
2017-12-28T21:27:50.334Z,3.80
2017-12-28T21:30:18.628Z,10.50
2017-12-28T21:32:46.935Z,4.50
2017-12-28T21:35:15.310Z,4.40
2017-12-28T21:37:43.596Z,3.10
2017-12-28T21:40:12.627Z,4.23
2017-12-28T21:42:41.773Z,9.37
2017-12-28T21:45:10.045Z,3.30
2017-12-28T21:47:38.325Z,3.80
2017-12-28T21:50:06.602Z,5.70
2017-12-28T21:52:34.877Z,6.83
2017-12-28T21:55:03.180Z,8.97
2017-12-28T21:57:33.038Z,4.17
2017-12-28T22:00:01.323Z,4.87
2017-12-28T22:02:29.595Z,3.63
2017-12-28T22:04:57.908Z,11.50
2017-12-28T22:07:26.191Z,3.90
2017-12-28T22:09:54.440Z,5.73
2017-12-28T22:12:22.831Z,8.03
2017-12-28T22:14:51.067Z,7.30
2017-12-28T22:17:19.323Z,5.70
2017-12-28T22:19:48.369Z,5.33
2017-12-28T22:22:16.628Z,5.67
2017-12-28T22:24:44.948Z,4.70
2017-12-28T22:27:13.198Z,3.57
2017-12-28T22:29:41.480Z,5.03
2017-12-28T22:32:09.740Z,5.70
2017-12-28T22:34:37.984Z,7.90
2017-12-28T22:37:07.030Z,4.10
2017-12-28T22:39:35.281Z,4.83
2017-12-28T22:42:03.551Z,3.80
2017-12-28T22:44:31.799Z,5.60
2017-12-28T22:47:00.889Z,4.27
2017-12-28T22:49:29.913Z,5.23
2017-12-28T22:51:58.187Z,4.37
2017-12-28T22:54:26.689Z,7.30
2017-12-28T22:56:54.938Z,6.40
2017-12-28T22:59:23.979Z,6.37
2017-12-28T23:01:52.236Z,4.63
2017-12-28T23:04:20.515Z,8.80
2017-12-28T23:06:48.762Z,11.77
2017-12-28T23:09:17.808Z,6.93
2017-12-28T23:11:46.091Z,4.37
2017-12-28T23:14:14.357Z,8.37
2017-12-28T23:16:42.629Z,4.10
2017-12-28T23:19:10.871Z,5.63
2017-12-28T23:21:39.153Z,5.60
2017-12-28T23:24:07.420Z,4.50
2017-12-28T23:26:36.431Z,9.67
2017-12-28T23:29:04.708Z,4.07
2017-12-28T23:31:32.968Z,6.50
2017-12-28T23:34:02.003Z,9.63
2017-12-28T23:36:30.400Z,10.10
2017-12-28T23:38:58.670Z,9.00
2017-12-28T23:41:26.939Z,12.13
2017-12-28T23:43:55.187Z,5.30
2017-12-28T23:46:23.504Z,6.90
2017-12-28T23:48:51.773Z,10.20
2017-12-28T23:51:20.072Z,7.27
2017-12-28T23:53:48.338Z,5.33
2017-12-28T23:56:16.588Z,7.23
2017-12-28T23:58:44.889Z,10.63
